Kurtz, IN (47249)

10:57 PM EDT on September 16, 2014 (GMT -0400)
Vallonia | Change Station
CLOSE
Current Station
Personal Weather Station
Location: Vallonia, IN
Elevation: 554 ft
Nearby Weather Stations
Active Advisory: Special Statement

Elev 554 ft 38.85 °N, 86.09 °W | Updated 1 minute ago

Clear
Clear
48.0 °F
Feels Like 48 °F
N
2.2
Wind Variable Wind from SE

Today
High -- | Low -- °F
--% Chance of Precip.
Yesterday
High -- | Low -- °F
Precip. -- in
7:27 AM 7:51 PM
Last Quarter, 40% visible
Pressure 30.11 in
Visibility 1.0 miles
Clouds Clear
Windchill 48 °F
Dew Point 48 °F
Humidity 99%
Rainfall 0.01 in
Snow Depth Not available.
UV 0 out of 12
Pollen 6.30 out of 12
Ozone Good
PM2.5 Moderate
Flu Activity Not available.
METAR KBMG 170253Z 00000KT 1SM BR CLR 09/08 A3011 RMK AO2 SLP196 T00890078 51002

More Conditions Fewer Conditions

Pressure 30.11 in
Visibility 1.0 miles
Clouds Clear
Windchill 48 °F
Dew Point 48 °F
Humidity 99%
Rainfall 0.01 in
Snow Depth Not available.
UV 0 out of 12
Pollen 6.30 out of 12
Ozone Good
PM2.5 Moderate
Flu Activity Not available.
METAR KBMG 170253Z 00000KT 1SM BR CLR 09/08 A3011 RMK AO2 SLP196 T00890078 51002

More Conditions Fewer Conditions

10-Day Weather Forecast

Almanac

Astronomy

Sep. 16, 2014 Rise Set
Actual Time 7:27 AM EDT 7:51 PM EDT
Civil Twilight 7:00 AM EDT 8:18 PM EDT
Nautical Twilight 6:28 AM EDT 8:49 PM EDT
Astronomical Twilight 5:56 AM EDT 9:21 PM EDT
Moon 12:38 AM EDT (9/16) 3:12 PM EDT (9/16)
Length of Visible Light 13h 17m
Length of Day
12h 24m
Tomorrow will be 2m 31s shorter.
Last Quarter, 40% of the Moon is Illuminated
Today
Last Quarter
Sep 24
New
Oct 1
First Quarter
Oct 8
Full
Oct 15
Last Quarter

Today's Extremes

State Highs State Lows

Community

WunderPhotos

Upload Photos

1,753,949 photos uploaded!

Nearby

Air Quality

  Air Quality AQ Index Pollutant
Yesterday Good
PM10
Yesterday Good
OZONE
Current Moderate
PM2.5
Current Good
OZONE
Tuesday Good
PM2.5
Tuesday Good
OZONE
Wednesday Moderate
PM2.5
Wednesday Good
OZONE
Thursday Moderate
PM2.5
Thursday Good
OZONE

Snow Depth

Station Depth Elevation
No new snow has been reported.

Earthquake Activity

City Distance Mag. Time & Date
No recent earthquake activity has been reported nearby.
Minimum magnitude displayed is 2.5.

Coastal Water Temperatures

Place Temperature
No Stations Reporting

Nearby Weather Stations